sensor_id;sensor_type;location;lat;lon;timestamp;P1;durP1;ratioP1;P2;durP2;ratioP2
20928;SDS011;21895;47.072;15.132;2024-03-06T00:00:03;8.10;;;3.47;;
20928;SDS011;21895;47.072;15.132;2024-03-06T00:02:30;9.47;;;3.53;;
20928;SDS011;21895;47.072;15.132;2024-03-06T00:04:57;6.10;;;2.60;;
20928;SDS011;21895;47.072;15.132;2024-03-06T00:07:24;13.47;;;4.33;;
20928;SDS011;21895;47.072;15.132;2024-03-06T00:09:51;7.10;;;3.17;;
20928;SDS011;21895;47.072;15.132;2024-03-06T00:12:18;10.77;;;4.10;;
20928;SDS011;21895;47.072;15.132;2024-03-06T00:14:45;10.70;;;4.53;;
20928;SDS011;21895;47.072;15.132;2024-03-06T00:17:12;12.03;;;5.30;;
20928;SDS011;21895;47.072;15.132;2024-03-06T00:19:38;16.43;;;5.67;;
20928;SDS011;21895;47.072;15.132;2024-03-06T00:22:05;15.27;;;5.20;;
20928;SDS011;21895;47.072;15.132;2024-03-06T00:24:31;15.77;;;5.20;;
20928;SDS011;21895;47.072;15.132;2024-03-06T00:26:58;10.37;;;4.83;;
20928;SDS011;21895;47.072;15.132;2024-03-06T00:29:25;10.33;;;4.20;;
20928;SDS011;21895;47.072;15.132;2024-03-06T00:31:51;11.20;;;3.97;;
20928;SDS011;21895;47.072;15.132;2024-03-06T00:34:18;14.23;;;4.87;;
20928;SDS011;21895;47.072;15.132;2024-03-06T00:36:44;12.10;;;4.60;;
20928;SDS011;21895;47.072;15.132;2024-03-06T00:39:11;8.50;;;3.57;;
20928;SDS011;21895;47.072;15.132;2024-03-06T00:41:40;9.80;;;3.83;;
20928;SDS011;21895;47.072;15.132;2024-03-06T00:44:07;10.53;;;3.87;;
20928;SDS011;21895;47.072;15.132;2024-03-06T00:46:34;9.27;;;3.63;;
20928;SDS011;21895;47.072;15.132;2024-03-06T00:49:00;12.43;;;3.70;;
20928;SDS011;21895;47.072;15.132;2024-03-06T00:51:27;9.30;;;4.37;;
20928;SDS011;21895;47.072;15.132;2024-03-06T00:54:09;10.33;;;3.37;;
20928;SDS011;21895;47.072;15.132;2024-03-06T00:56:39;7.17;;;3.07;;
20928;SDS011;21895;47.072;15.132;2024-03-06T00:59:05;10.73;;;3.63;;
20928;SDS011;21895;47.072;15.132;2024-03-06T01:01:32;8.37;;;3.30;;
20928;SDS011;21895;47.072;15.132;2024-03-06T01:03:59;7.60;;;3.50;;
20928;SDS011;21895;47.072;15.132;2024-03-06T01:06:26;9.23;;;3.20;;
20928;SDS011;21895;47.072;15.132;2024-03-06T01:08:53;7.83;;;3.53;;
20928;SDS011;21895;47.072;15.132;2024-03-06T01:11:20;11.20;;;4.47;;
20928;SDS011;21895;47.072;15.132;2024-03-06T01:13:47;9.63;;;4.63;;
20928;SDS011;21895;47.072;15.132;2024-03-06T01:16:13;13.63;;;5.03;;
20928;SDS011;21895;47.072;15.132;2024-03-06T01:18:40;13.27;;;5.40;;
20928;SDS011;21895;47.072;15.132;2024-03-06T01:21:06;20.33;;;4.90;;
20928;SDS011;21895;47.072;15.132;2024-03-06T01:23:33;9.73;;;4.50;;
20928;SDS011;21895;47.072;15.132;2024-03-06T01:26:01;16.73;;;4.27;;
20928;SDS011;21895;47.072;15.132;2024-03-06T01:28:31;14.27;;;4.90;;
20928;SDS011;21895;47.072;15.132;2024-03-06T01:30:58;11.20;;;4.07;;
20928;SDS011;21895;47.072;15.132;2024-03-06T01:33:25;12.40;;;4.40;;
20928;SDS011;21895;47.072;15.132;2024-03-06T01:35:52;11.10;;;4.23;;
20928;SDS011;21895;47.072;15.132;2024-03-06T01:38:18;10.60;;;4.17;;
20928;SDS011;21895;47.072;15.132;2024-03-06T01:40:45;13.90;;;6.07;;
20928;SDS011;21895;47.072;15.132;2024-03-06T01:43:21;10.80;;;4.73;;
20928;SDS011;21895;47.072;15.132;2024-03-06T01:45:52;15.00;;;4.63;;
20928;SDS011;21895;47.072;15.132;2024-03-06T01:48:23;13.60;;;4.87;;
20928;SDS011;21895;47.072;15.132;2024-03-06T01:50:57;18.67;;;4.70;;
20928;SDS011;21895;47.072;15.132;2024-03-06T01:53:28;14.60;;;4.73;;
20928;SDS011;21895;47.072;15.132;2024-03-06T01:55:57;12.97;;;4.70;;
20928;SDS011;21895;47.072;15.132;2024-03-06T01:58:24;10.37;;;4.40;;
20928;SDS011;21895;47.072;15.132;2024-03-06T02:00:52;7.53;;;4.23;;
20928;SDS011;21895;47.072;15.132;2024-03-06T02:03:18;10.87;;;4.23;;
20928;SDS011;21895;47.072;15.132;2024-03-06T02:05:46;10.43;;;4.50;;
20928;SDS011;21895;47.072;15.132;2024-03-06T02:08:16;13.53;;;5.03;;
20928;SDS011;21895;47.072;15.132;2024-03-06T02:10:44;13.03;;;3.73;;
20928;SDS011;21895;47.072;15.132;2024-03-06T02:13:15;12.80;;;5.37;;
20928;SDS011;21895;47.072;15.132;2024-03-06T02:15:42;9.07;;;4.23;;
20928;SDS011;21895;47.072;15.132;2024-03-06T02:18:11;12.17;;;4.23;;
20928;SDS011;21895;47.072;15.132;2024-03-06T02:20:38;15.57;;;4.50;;
20928;SDS011;21895;47.072;15.132;2024-03-06T02:23:07;10.07;;;4.23;;
20928;SDS011;21895;47.072;15.132;2024-03-06T02:25:35;15.13;;;3.93;;
20928;SDS011;21895;47.072;15.132;2024-03-06T02:28:01;13.10;;;4.33;;
20928;SDS011;21895;47.072;15.132;2024-03-06T02:30:28;8.80;;;3.70;;
20928;SDS011;21895;47.072;15.132;2024-03-06T02:33:01;10.27;;;3.53;;
20928;SDS011;21895;47.072;15.132;2024-03-06T02:35:31;11.03;;;3.90;;
20928;SDS011;21895;47.072;15.132;2024-03-06T02:37:59;10.27;;;4.27;;
20928;SDS011;21895;47.072;15.132;2024-03-06T02:40:26;13.67;;;4.10;;
20928;SDS011;21895;47.072;15.132;2024-03-06T02:42:53;10.17;;;4.10;;
20928;SDS011;21895;47.072;15.132;2024-03-06T02:45:19;8.87;;;4.30;;
20928;SDS011;21895;47.072;15.132;2024-03-06T02:47:46;12.90;;;4.03;;
20928;SDS011;21895;47.072;15.132;2024-03-06T02:50:13;12.57;;;5.10;;
20928;SDS011;21895;47.072;15.132;2024-03-06T02:52:40;11.83;;;3.83;;
20928;SDS011;21895;47.072;15.132;2024-03-06T02:55:07;9.77;;;4.73;;
20928;SDS011;21895;47.072;15.132;2024-03-06T02:57:34;17.07;;;4.50;;
20928;SDS011;21895;47.072;15.132;2024-03-06T03:00:00;8.77;;;4.40;;
20928;SDS011;21895;47.072;15.132;2024-03-06T03:02:27;12.77;;;4.93;;
20928;SDS011;21895;47.072;15.132;2024-03-06T03:04:54;10.20;;;4.67;;
20928;SDS011;21895;47.072;15.132;2024-03-06T03:07:20;10.10;;;4.37;;
20928;SDS011;21895;47.072;15.132;2024-03-06T03:09:47;12.60;;;4.47;;
20928;SDS011;21895;47.072;15.132;2024-03-06T03:12:14;23.67;;;5.30;;
20928;SDS011;21895;47.072;15.132;2024-03-06T03:14:40;14.53;;;4.37;;
20928;SDS011;21895;47.072;15.132;2024-03-06T03:17:07;21.53;;;4.83;;
20928;SDS011;21895;47.072;15.132;2024-03-06T03:19:34;11.90;;;4.60;;
20928;SDS011;21895;47.072;15.132;2024-03-06T03:22:01;17.93;;;5.13;;
20928;SDS011;21895;47.072;15.132;2024-03-06T03:24:30;10.47;;;4.50;;
20928;SDS011;21895;47.072;15.132;2024-03-06T03:26:56;12.37;;;4.37;;
20928;SDS011;21895;47.072;15.132;2024-03-06T03:29:23;12.10;;;4.93;;
20928;SDS011;21895;47.072;15.132;2024-03-06T03:31:49;16.23;;;5.23;;
20928;SDS011;21895;47.072;15.132;2024-03-06T03:34:16;12.27;;;5.00;;
20928;SDS011;21895;47.072;15.132;2024-03-06T03:36:43;14.47;;;5.27;;
20928;SDS011;21895;47.072;15.132;2024-03-06T03:39:10;10.83;;;4.83;;
20928;SDS011;21895;47.072;15.132;2024-03-06T03:41:47;9.73;;;4.83;;
20928;SDS011;21895;47.072;15.132;2024-03-06T03:44:14;12.93;;;4.50;;
20928;SDS011;21895;47.072;15.132;2024-03-06T03:46:44;9.90;;;4.17;;
20928;SDS011;21895;47.072;15.132;2024-03-06T03:49:11;21.87;;;4.43;;
20928;SDS011;21895;47.072;15.132;2024-03-06T03:51:38;9.63;;;4.23;;
20928;SDS011;21895;47.072;15.132;2024-03-06T03:54:06;9.70;;;4.83;;
20928;SDS011;21895;47.072;15.132;2024-03-06T03:56:33;10.97;;;4.23;;
20928;SDS011;21895;47.072;15.132;2024-03-06T03:59:00;12.60;;;4.57;;
20928;SDS011;21895;47.072;15.132;2024-03-06T04:01:28;13.90;;;3.97;;
20928;SDS011;21895;47.072;15.132;2024-03-06T04:03:55;9.53;;;4.57;;
20928;SDS011;21895;47.072;15.132;2024-03-06T04:06:21;11.20;;;4.17;;
20928;SDS011;21895;47.072;15.132;2024-03-06T04:08:48;10.67;;;4.93;;
20928;SDS011;21895;47.072;15.132;2024-03-06T04:11:15;11.13;;;4.27;;
20928;SDS011;21895;47.072;15.132;2024-03-06T04:13:42;16.27;;;4.53;;
20928;SDS011;21895;47.072;15.132;2024-03-06T04:16:09;15.30;;;4.67;;
20928;SDS011;21895;47.072;15.132;2024-03-06T04:18:36;8.50;;;4.47;;
20928;SDS011;21895;47.072;15.132;2024-03-06T04:21:05;19.30;;;5.03;;
20928;SDS011;21895;47.072;15.132;2024-03-06T04:23:32;18.43;;;4.47;;
20928;SDS011;21895;47.072;15.132;2024-03-06T04:25:59;9.03;;;4.00;;
20928;SDS011;21895;47.072;15.132;2024-03-06T04:28:26;14.87;;;4.53;;
20928;SDS011;21895;47.072;15.132;2024-03-06T04:30:53;16.17;;;4.77;;
20928;SDS011;21895;47.072;15.132;2024-03-06T04:33:19;13.20;;;5.10;;
20928;SDS011;21895;47.072;15.132;2024-03-06T04:35:46;15.27;;;5.53;;
20928;SDS011;21895;47.072;15.132;2024-03-06T04:38:13;10.87;;;4.57;;
20928;SDS011;21895;47.072;15.132;2024-03-06T04:40:40;13.57;;;5.37;;
20928;SDS011;21895;47.072;15.132;2024-03-06T04:43:06;16.47;;;5.83;;
20928;SDS011;21895;47.072;15.132;2024-03-06T04:45:33;14.70;;;5.33;;
20928;SDS011;21895;47.072;15.132;2024-03-06T04:48:00;14.00;;;5.57;;
20928;SDS011;21895;47.072;15.132;2024-03-06T04:50:26;16.20;;;5.17;;
20928;SDS011;21895;47.072;15.132;2024-03-06T04:52:53;16.10;;;5.07;;
20928;SDS011;21895;47.072;15.132;2024-03-06T04:55:20;11.70;;;4.57;;
20928;SDS011;21895;47.072;15.132;2024-03-06T04:57:48;13.00;;;4.83;;
20928;SDS011;21895;47.072;15.132;2024-03-06T05:00:15;13.00;;;4.87;;
20928;SDS011;21895;47.072;15.132;2024-03-06T05:02:43;12.40;;;5.13;;
20928;SDS011;21895;47.072;15.132;2024-03-06T05:05:28;12.43;;;5.20;;
20928;SDS011;21895;47.072;15.132;2024-03-06T05:08:13;16.40;;;5.30;;
20928;SDS011;21895;47.072;15.132;2024-03-06T05:10:59;16.17;;;6.13;;
20928;SDS011;21895;47.072;15.132;2024-03-06T05:13:45;17.97;;;4.63;;
20928;SDS011;21895;47.072;15.132;2024-03-06T05:16:30;22.90;;;6.53;;
20928;SDS011;21895;47.072;15.132;2024-03-06T05:19:14;17.97;;;5.97;;
20928;SDS011;21895;47.072;15.132;2024-03-06T05:21:59;13.73;;;5.87;;
20928;SDS011;21895;47.072;15.132;2024-03-06T05:24:43;19.53;;;5.10;;
20928;SDS011;21895;47.072;15.132;2024-03-06T05:27:28;11.20;;;5.13;;
20928;SDS011;21895;47.072;15.132;2024-03-06T05:30:12;16.43;;;5.57;;
20928;SDS011;21895;47.072;15.132;2024-03-06T05:32:58;21.10;;;5.53;;
20928;SDS011;21895;47.072;15.132;2024-03-06T05:35:43;14.80;;;4.87;;
20928;SDS011;21895;47.072;15.132;2024-03-06T05:38:27;18.27;;;5.67;;
20928;SDS011;21895;47.072;15.132;2024-03-06T05:41:12;17.50;;;6.00;;
20928;SDS011;21895;47.072;15.132;2024-03-06T05:43:56;17.10;;;5.13;;
20928;SDS011;21895;47.072;15.132;2024-03-06T05:46:41;17.47;;;4.80;;
20928;SDS011;21895;47.072;15.132;2024-03-06T05:49:25;19.50;;;6.67;;
20928;SDS011;21895;47.072;15.132;2024-03-06T05:52:10;18.13;;;7.20;;
20928;SDS011;21895;47.072;15.132;2024-03-06T05:54:55;21.00;;;7.07;;
20928;SDS011;21895;47.072;15.132;2024-03-06T05:57:39;21.33;;;6.47;;
20928;SDS011;21895;47.072;15.132;2024-03-06T06:00:29;17.43;;;5.73;;
20928;SDS011;21895;47.072;15.132;2024-03-06T06:02:55;13.07;;;5.07;;
20928;SDS011;21895;47.072;15.132;2024-03-06T06:05:22;18.67;;;5.30;;
20928;SDS011;21895;47.072;15.132;2024-03-06T06:07:50;20.10;;;5.80;;
20928;SDS011;21895;47.072;15.132;2024-03-06T06:10:17;17.43;;;6.17;;
20928;SDS011;21895;47.072;15.132;2024-03-06T06:12:48;24.60;;;5.53;;
20928;SDS011;21895;47.072;15.132;2024-03-06T06:15:15;11.67;;;5.00;;
20928;SDS011;21895;47.072;15.132;2024-03-06T06:17:42;14.57;;;5.70;;
20928;SDS011;21895;47.072;15.132;2024-03-06T06:20:10;22.80;;;5.43;;
20928;SDS011;21895;47.072;15.132;2024-03-06T06:22:41;17.13;;;6.60;;
20928;SDS011;21895;47.072;15.132;2024-03-06T06:25:08;17.70;;;6.23;;
20928;SDS011;21895;47.072;15.132;2024-03-06T06:27:35;18.17;;;5.63;;
20928;SDS011;21895;47.072;15.132;2024-03-06T06:30:02;18.33;;;5.77;;
20928;SDS011;21895;47.072;15.132;2024-03-06T06:32:32;11.50;;;4.93;;
20928;SDS011;21895;47.072;15.132;2024-03-06T06:34:59;11.67;;;5.27;;
20928;SDS011;21895;47.072;15.132;2024-03-06T06:37:26;12.80;;;5.00;;
20928;SDS011;21895;47.072;15.132;2024-03-06T06:39:52;16.70;;;5.83;;
20928;SDS011;21895;47.072;15.132;2024-03-06T06:42:19;14.60;;;6.47;;
20928;SDS011;21895;47.072;15.132;2024-03-06T06:44:46;20.50;;;6.93;;
20928;SDS011;21895;47.072;15.132;2024-03-06T06:47:12;16.50;;;5.73;;
20928;SDS011;21895;47.072;15.132;2024-03-06T06:49:42;17.27;;;5.43;;
20928;SDS011;21895;47.072;15.132;2024-03-06T06:52:10;16.87;;;5.43;;
20928;SDS011;21895;47.072;15.132;2024-03-06T06:54:36;14.33;;;5.50;;
20928;SDS011;21895;47.072;15.132;2024-03-06T06:57:03;28.17;;;5.07;;
20928;SDS011;21895;47.072;15.132;2024-03-06T06:59:30;11.20;;;5.33;;
20928;SDS011;21895;47.072;15.132;2024-03-06T07:01:56;18.57;;;6.23;;
20928;SDS011;21895;47.072;15.132;2024-03-06T07:04:23;19.47;;;6.00;;
20928;SDS011;21895;47.072;15.132;2024-03-06T07:06:50;16.77;;;5.53;;
20928;SDS011;21895;47.072;15.132;2024-03-06T07:09:16;22.00;;;6.50;;
20928;SDS011;21895;47.072;15.132;2024-03-06T07:11:44;13.47;;;6.27;;
20928;SDS011;21895;47.072;15.132;2024-03-06T07:14:13;20.97;;;6.37;;
20928;SDS011;21895;47.072;15.132;2024-03-06T07:16:43;16.17;;;6.47;;
20928;SDS011;21895;47.072;15.132;2024-03-06T07:19:13;18.43;;;6.70;;
20928;SDS011;21895;47.072;15.132;2024-03-06T07:21:39;23.20;;;7.20;;
20928;SDS011;21895;47.072;15.132;2024-03-06T07:24:07;16.13;;;6.13;;
20928;SDS011;21895;47.072;15.132;2024-03-06T07:26:34;18.77;;;7.30;;
20928;SDS011;21895;47.072;15.132;2024-03-06T07:29:01;15.23;;;5.87;;
20928;SDS011;21895;47.072;15.132;2024-03-06T07:31:28;17.67;;;6.03;;
20928;SDS011;21895;47.072;15.132;2024-03-06T07:33:55;25.20;;;6.43;;
20928;SDS011;21895;47.072;15.132;2024-03-06T07:36:21;15.83;;;5.87;;
20928;SDS011;21895;47.072;15.132;2024-03-06T07:38:48;15.87;;;6.33;;
20928;SDS011;21895;47.072;15.132;2024-03-06T07:41:15;19.53;;;7.20;;
20928;SDS011;21895;47.072;15.132;2024-03-06T07:43:41;18.70;;;7.80;;
20928;SDS011;21895;47.072;15.132;2024-03-06T07:46:08;18.97;;;7.07;;
20928;SDS011;21895;47.072;15.132;2024-03-06T07:48:41;15.13;;;5.60;;
20928;SDS011;21895;47.072;15.132;2024-03-06T07:51:09;16.23;;;6.53;;
20928;SDS011;21895;47.072;15.132;2024-03-06T07:53:36;13.97;;;6.23;;
20928;SDS011;21895;47.072;15.132;2024-03-06T07:56:03;16.23;;;6.23;;
20928;SDS011;21895;47.072;15.132;2024-03-06T07:58:30;20.77;;;6.20;;
20928;SDS011;21895;47.072;15.132;2024-03-06T08:00:56;13.90;;;6.00;;
20928;SDS011;21895;47.072;15.132;2024-03-06T08:03:24;16.20;;;6.60;;
20928;SDS011;21895;47.072;15.132;2024-03-06T08:05:51;13.87;;;6.13;;
20928;SDS011;21895;47.072;15.132;2024-03-06T08:08:19;14.93;;;5.63;;
20928;SDS011;21895;47.072;15.132;2024-03-06T08:10:46;14.53;;;5.50;;
20928;SDS011;21895;47.072;15.132;2024-03-06T08:13:13;21.17;;;7.27;;
20928;SDS011;21895;47.072;15.132;2024-03-06T08:15:41;15.27;;;5.93;;
20928;SDS011;21895;47.072;15.132;2024-03-06T08:18:10;22.83;;;6.77;;
20928;SDS011;21895;47.072;15.132;2024-03-06T08:20:40;14.13;;;6.07;;
20928;SDS011;21895;47.072;15.132;2024-03-06T08:23:08;19.83;;;7.17;;
20928;SDS011;21895;47.072;15.132;2024-03-06T08:25:38;17.77;;;7.13;;
20928;SDS011;21895;47.072;15.132;2024-03-06T08:28:04;16.73;;;5.80;;
20928;SDS011;21895;47.072;15.132;2024-03-06T08:30:32;19.03;;;6.40;;
20928;SDS011;21895;47.072;15.132;2024-03-06T08:33:00;16.37;;;6.47;;
20928;SDS011;21895;47.072;15.132;2024-03-06T08:35:27;18.67;;;7.53;;
20928;SDS011;21895;47.072;15.132;2024-03-06T08:37:55;15.67;;;6.63;;
20928;SDS011;21895;47.072;15.132;2024-03-06T08:40:22;18.87;;;6.43;;
20928;SDS011;21895;47.072;15.132;2024-03-06T08:42:51;24.00;;;6.43;;
20928;SDS011;21895;47.072;15.132;2024-03-06T08:45:18;25.03;;;5.90;;
20928;SDS011;21895;47.072;15.132;2024-03-06T08:47:46;14.37;;;5.73;;
20928;SDS011;21895;47.072;15.132;2024-03-06T08:50:14;18.87;;;6.33;;
20928;SDS011;21895;47.072;15.132;2024-03-06T08:52:41;15.33;;;6.57;;
20928;SDS011;21895;47.072;15.132;2024-03-06T08:55:08;21.87;;;6.47;;
20928;SDS011;21895;47.072;15.132;2024-03-06T08:57:35;21.40;;;6.70;;
20928;SDS011;21895;47.072;15.132;2024-03-06T09:00:03;16.03;;;6.50;;
20928;SDS011;21895;47.072;15.132;2024-03-06T09:02:36;16.03;;;7.93;;
20928;SDS011;21895;47.072;15.132;2024-03-06T09:05:09;23.20;;;8.03;;
20928;SDS011;21895;47.072;15.132;2024-03-06T09:07:38;18.47;;;7.37;;
20928;SDS011;21895;47.072;15.132;2024-03-06T09:10:08;21.27;;;6.43;;
20928;SDS011;21895;47.072;15.132;2024-03-06T09:12:39;20.33;;;6.90;;
20928;SDS011;21895;47.072;15.132;2024-03-06T09:15:07;21.10;;;7.00;;
20928;SDS011;21895;47.072;15.132;2024-03-06T09:17:34;16.73;;;7.30;;
20928;SDS011;21895;47.072;15.132;2024-03-06T09:20:01;19.83;;;8.03;;
20928;SDS011;21895;47.072;15.132;2024-03-06T09:22:39;24.13;;;7.53;;
20928;SDS011;21895;47.072;15.132;2024-03-06T09:25:07;29.57;;;8.40;;
20928;SDS011;21895;47.072;15.132;2024-03-06T09:27:35;18.97;;;7.60;;
20928;SDS011;21895;47.072;15.132;2024-03-06T09:30:02;29.53;;;7.67;;
20928;SDS011;21895;47.072;15.132;2024-03-06T09:32:30;29.13;;;6.90;;
20928;SDS011;21895;47.072;15.132;2024-03-06T09:34:58;18.30;;;7.33;;
20928;SDS011;21895;47.072;15.132;2024-03-06T09:37:25;15.57;;;7.00;;
20928;SDS011;21895;47.072;15.132;2024-03-06T09:39:51;19.83;;;7.47;;
20928;SDS011;21895;47.072;15.132;2024-03-06T09:42:18;20.80;;;7.50;;
20928;SDS011;21895;47.072;15.132;2024-03-06T09:44:45;31.00;;;7.10;;
20928;SDS011;21895;47.072;15.132;2024-03-06T09:47:13;17.93;;;6.10;;
20928;SDS011;21895;47.072;15.132;2024-03-06T09:49:40;30.40;;;6.70;;
20928;SDS011;21895;47.072;15.132;2024-03-06T09:52:07;17.70;;;6.90;;
20928;SDS011;21895;47.072;15.132;2024-03-06T09:54:35;29.50;;;7.80;;
20928;SDS011;21895;47.072;15.132;2024-03-06T09:57:04;15.90;;;7.30;;
20928;SDS011;21895;47.072;15.132;2024-03-06T09:59:31;17.70;;;6.63;;
20928;SDS011;21895;47.072;15.132;2024-03-06T10:01:58;15.90;;;5.93;;
20928;SDS011;21895;47.072;15.132;2024-03-06T10:04:32;16.60;;;7.13;;
20928;SDS011;21895;47.072;15.132;2024-03-06T10:07:02;12.90;;;6.00;;
20928;SDS011;21895;47.072;15.132;2024-03-06T10:09:30;13.70;;;5.70;;
20928;SDS011;21895;47.072;15.132;2024-03-06T10:11:58;18.03;;;6.47;;
20928;SDS011;21895;47.072;15.132;2024-03-06T10:14:31;17.47;;;6.43;;
20928;SDS011;21895;47.072;15.132;2024-03-06T10:16:58;25.77;;;6.90;;
20928;SDS011;21895;47.072;15.132;2024-03-06T10:19:28;19.33;;;6.47;;
20928;SDS011;21895;47.072;15.132;2024-03-06T10:21:57;15.83;;;6.50;;
20928;SDS011;21895;47.072;15.132;2024-03-06T10:24:25;33.30;;;6.70;;
20928;SDS011;21895;47.072;15.132;2024-03-06T10:26:57;16.10;;;6.87;;
20928;SDS011;21895;47.072;15.132;2024-03-06T10:29:26;15.90;;;6.53;;
20928;SDS011;21895;47.072;15.132;2024-03-06T10:31:55;19.90;;;6.80;;
20928;SDS011;21895;47.072;15.132;2024-03-06T10:34:25;24.67;;;7.33;;
20928;SDS011;21895;47.072;15.132;2024-03-06T10:36:54;19.97;;;6.43;;
20928;SDS011;21895;47.072;15.132;2024-03-06T10:39:25;21.10;;;7.43;;
20928;SDS011;21895;47.072;15.132;2024-03-06T10:41:52;15.97;;;7.53;;
20928;SDS011;21895;47.072;15.132;2024-03-06T10:44:21;23.23;;;7.50;;
20928;SDS011;21895;47.072;15.132;2024-03-06T10:46:54;20.10;;;7.87;;
20928;SDS011;21895;47.072;15.132;2024-03-06T10:49:27;20.07;;;7.57;;
20928;SDS011;21895;47.072;15.132;2024-03-06T10:52:02;20.17;;;8.10;;
20928;SDS011;21895;47.072;15.132;2024-03-06T10:54:32;19.67;;;7.63;;
20928;SDS011;21895;47.072;15.132;2024-03-06T10:57:02;17.67;;;8.40;;
20928;SDS011;21895;47.072;15.132;2024-03-06T10:59:29;26.63;;;8.70;;
20928;SDS011;21895;47.072;15.132;2024-03-06T11:01:57;28.50;;;8.13;;
20928;SDS011;21895;47.072;15.132;2024-03-06T11:04:29;26.20;;;8.63;;
20928;SDS011;21895;47.072;15.132;2024-03-06T11:07:01;31.27;;;9.03;;
20928;SDS011;21895;47.072;15.132;2024-03-06T11:09:36;23.17;;;9.77;;
20928;SDS011;21895;47.072;15.132;2024-03-06T11:12:04;26.13;;;8.97;;
20928;SDS011;21895;47.072;15.132;2024-03-06T11:14:38;20.60;;;8.47;;
20928;SDS011;21895;47.072;15.132;2024-03-06T11:17:09;27.80;;;8.47;;
20928;SDS011;21895;47.072;15.132;2024-03-06T11:23:04;19.00;;;8.07;;
20928;SDS011;21895;47.072;15.132;2024-03-06T11:30:44;21.70;;;8.03;;
20928;SDS011;21895;47.072;15.132;2024-03-06T11:36:24;24.80;;;9.07;;
20928;SDS011;21895;47.072;15.132;2024-03-06T11:39:28;22.70;;;8.60;;
20928;SDS011;21895;47.072;15.132;2024-03-06T11:41:59;28.00;;;9.60;;
20928;SDS011;21895;47.072;15.132;2024-03-06T11:44:26;21.50;;;8.57;;
20928;SDS011;21895;47.072;15.132;2024-03-06T11:46:58;20.23;;;9.30;;
20928;SDS011;21895;47.072;15.132;2024-03-06T11:49:27;28.53;;;10.63;;
20928;SDS011;21895;47.072;15.132;2024-03-06T11:51:56;22.67;;;9.10;;
20928;SDS011;21895;47.072;15.132;2024-03-06T11:54:25;23.13;;;9.20;;
20928;SDS011;21895;47.072;15.132;2024-03-06T11:56:54;26.33;;;10.30;;
20928;SDS011;21895;47.072;15.132;2024-03-06T11:59:24;29.10;;;10.03;;
20928;SDS011;21895;47.072;15.132;2024-03-06T12:02:04;29.13;;;10.00;;
20928;SDS011;21895;47.072;15.132;2024-03-06T12:04:31;29.10;;;10.07;;
20928;SDS011;21895;47.072;15.132;2024-03-06T12:07:01;34.23;;;11.40;;
20928;SDS011;21895;47.072;15.132;2024-03-06T12:09:34;25.07;;;10.07;;
20928;SDS011;21895;47.072;15.132;2024-03-06T12:12:08;27.90;;;10.23;;
20928;SDS011;21895;47.072;15.132;2024-03-06T12:14:36;27.47;;;9.90;;
20928;SDS011;21895;47.072;15.132;2024-03-06T12:17:04;26.33;;;10.63;;
20928;SDS011;21895;47.072;15.132;2024-03-06T12:19:31;34.80;;;11.40;;
20928;SDS011;21895;47.072;15.132;2024-03-06T12:22:00;36.83;;;11.17;;
20928;SDS011;21895;47.072;15.132;2024-03-06T12:24:30;26.17;;;10.27;;
20928;SDS011;21895;47.072;15.132;2024-03-06T12:26:59;31.23;;;11.07;;
20928;SDS011;21895;47.072;15.132;2024-03-06T12:29:30;26.47;;;10.00;;
20928;SDS011;21895;47.072;15.132;2024-03-06T12:32:01;27.63;;;10.20;;
20928;SDS011;21895;47.072;15.132;2024-03-06T12:34:28;28.40;;;10.77;;
20928;SDS011;21895;47.072;15.132;2024-03-06T12:37:10;32.33;;;11.03;;
20928;SDS011;21895;47.072;15.132;2024-03-06T12:39:38;24.47;;;9.53;;
20928;SDS011;21895;47.072;15.132;2024-03-06T12:42:09;32.77;;;11.10;;
20928;SDS011;21895;47.072;15.132;2024-03-06T12:44:37;29.10;;;10.57;;
20928;SDS011;21895;47.072;15.132;2024-03-06T12:47:05;33.00;;;10.40;;
20928;SDS011;21895;47.072;15.132;2024-03-06T12:49:32;33.57;;;11.27;;
20928;SDS011;21895;47.072;15.132;2024-03-06T12:51:58;27.67;;;10.73;;
20928;SDS011;21895;47.072;15.132;2024-03-06T12:54:29;24.37;;;9.93;;
20928;SDS011;21895;47.072;15.132;2024-03-06T12:56:56;26.77;;;9.73;;
20928;SDS011;21895;47.072;15.132;2024-03-06T12:59:23;28.80;;;10.33;;
20928;SDS011;21895;47.072;15.132;2024-03-06T13:01:49;30.40;;;10.47;;
20928;SDS011;21895;47.072;15.132;2024-03-06T13:04:16;28.67;;;10.57;;
20928;SDS011;21895;47.072;15.132;2024-03-06T13:06:43;30.33;;;10.60;;
20928;SDS011;21895;47.072;15.132;2024-03-06T13:09:11;31.90;;;10.53;;
20928;SDS011;21895;47.072;15.132;2024-03-06T13:11:38;30.53;;;9.87;;
20928;SDS011;21895;47.072;15.132;2024-03-06T13:14:05;32.33;;;10.47;;
20928;SDS011;21895;47.072;15.132;2024-03-06T13:16:32;25.03;;;10.37;;
20928;SDS011;21895;47.072;15.132;2024-03-06T13:18:58;24.87;;;10.20;;
20928;SDS011;21895;47.072;15.132;2024-03-06T13:21:27;25.97;;;10.80;;
20928;SDS011;21895;47.072;15.132;2024-03-06T13:23:53;30.13;;;10.63;;
20928;SDS011;21895;47.072;15.132;2024-03-06T13:26:20;28.13;;;11.13;;
20928;SDS011;21895;47.072;15.132;2024-03-06T13:28:47;21.57;;;9.90;;
20928;SDS011;21895;47.072;15.132;2024-03-06T13:31:14;27.87;;;10.30;;
20928;SDS011;21895;47.072;15.132;2024-03-06T13:33:41;29.97;;;10.93;;
20928;SDS011;21895;47.072;15.132;2024-03-06T13:36:08;33.77;;;10.67;;
20928;SDS011;21895;47.072;15.132;2024-03-06T13:38:34;36.60;;;10.53;;
20928;SDS011;21895;47.072;15.132;2024-03-06T13:41:01;28.87;;;10.63;;
20928;SDS011;21895;47.072;15.132;2024-03-06T13:43:28;28.60;;;10.37;;
20928;SDS011;21895;47.072;15.132;2024-03-06T13:45:54;30.77;;;10.67;;
20928;SDS011;21895;47.072;15.132;2024-03-06T13:48:21;30.67;;;10.50;;
20928;SDS011;21895;47.072;15.132;2024-03-06T13:50:48;33.30;;;10.27;;
20928;SDS011;21895;47.072;15.132;2024-03-06T13:53:15;29.27;;;11.17;;
20928;SDS011;21895;47.072;15.132;2024-03-06T13:55:41;26.42;;;10.52;;
20928;SDS011;21895;47.072;15.132;2024-03-06T13:58:08;30.40;;;10.30;;
20928;SDS011;21895;47.072;15.132;2024-03-06T14:00:36;33.23;;;10.43;;
20928;SDS011;21895;47.072;15.132;2024-03-06T14:03:04;27.47;;;10.07;;
20928;SDS011;21895;47.072;15.132;2024-03-06T14:05:30;33.37;;;10.47;;
20928;SDS011;21895;47.072;15.132;2024-03-06T14:07:57;25.67;;;10.53;;
20928;SDS011;21895;47.072;15.132;2024-03-06T14:10:24;26.17;;;9.27;;
20928;SDS011;21895;47.072;15.132;2024-03-06T14:12:52;23.33;;;8.13;;
20928;SDS011;21895;47.072;15.132;2024-03-06T14:15:20;19.43;;;8.17;;
20928;SDS011;21895;47.072;15.132;2024-03-06T14:17:50;21.80;;;7.57;;
20928;SDS011;21895;47.072;15.132;2024-03-06T14:20:19;15.27;;;5.63;;
20928;SDS011;21895;47.072;15.132;2024-03-06T14:22:46;18.27;;;6.67;;
20928;SDS011;21895;47.072;15.132;2024-03-06T14:25:14;22.10;;;7.73;;
20928;SDS011;21895;47.072;15.132;2024-03-06T14:27:41;21.80;;;7.67;;
20928;SDS011;21895;47.072;15.132;2024-03-06T14:30:09;20.33;;;8.17;;
20928;SDS011;21895;47.072;15.132;2024-03-06T14:32:40;18.75;;;7.37;;
20928;SDS011;21895;47.072;15.132;2024-03-06T14:35:07;25.20;;;8.13;;
20928;SDS011;21895;47.072;15.132;2024-03-06T14:37:34;19.37;;;7.60;;
20928;SDS011;21895;47.072;15.132;2024-03-06T14:40:01;19.97;;;7.97;;
20928;SDS011;21895;47.072;15.132;2024-03-06T14:42:34;18.98;;;7.25;;